Time;durP1;ratioP1;P1;durP2;ratioP2;P2;SDS_P1;SDS_P2;PMS_P1;PMS_P2;Temp;Humidity;BMP_temperature;BMP_pressure;BME280_temperature;BME280_humidity;BME280_pressure;Samples;Min_cycle;Max_cycle;Signal;HPM_P1;HPM_P2
2023/06/07 00:03:09;;;;;;;;;9.00;9.00;;;;;;;;6487121;46;8887;-56
2023/06/07 00:09:12;;;;;;;;;9.00;9.00;;;;;;;;6488218;46;8926;-55
2023/06/07 00:15:14;;;;;;;;;12.67;11.33;;;;;;;;6487854;39;8906;-55
2023/06/07 00:21:19;;;;;;;;;8.67;8.00;;;;;;;;6488296;39;9733;-55
2023/06/07 00:27:22;;;;;;;;;9.33;8.00;;;;;;;;6488086;46;8848;-55
2023/06/07 00:33:25;;;;;;;;;10.67;10.00;;;;;;;;6487928;39;9506;-52
2023/06/07 00:39:28;;;;;;;;;9.33;9.33;;;;;;;;6487961;39;8888;-56
2023/06/07 00:45:30;;;;;;;;;10.33;10.33;;;;;;;;6488278;31;8866;-54
2023/06/07 00:51:32;;;;;;;;;10.33;10.33;;;;;;;;6487107;46;9026;-53
2023/06/07 00:57:35;;;;;;;;;9.67;9.00;;;;;;;;6487685;39;8985;-54
2023/06/07 01:03:39;;;;;;;;;13.33;11.00;;;;;;;;6487011;39;8955;-54
2023/06/07 01:09:42;;;;;;;;;10.33;9.00;;;;;;;;6486997;47;8887;-56
2023/06/07 01:15:46;;;;;;;;;12.33;12.33;;;;;;;;6487369;39;8920;-56
2023/06/07 01:21:52;;;;;;;;;12.00;12.00;;;;;;;;6487303;39;8886;-54
2023/06/07 01:27:56;;;;;;;;;10.33;8.67;;;;;;;;6487477;39;8876;-54
2023/06/07 01:33:59;;;;;;;;;10.00;10.00;;;;;;;;6487161;39;8907;-55
2023/06/07 01:40:05;;;;;;;;;11.67;11.67;;;;;;;;6487166;39;8936;-53
2023/06/07 01:46:09;;;;;;;;;12.67;9.00;;;;;;;;6486595;39;8879;-54
2023/06/07 01:52:12;;;;;;;;;12.33;12.00;;;;;;;;6487109;36;9010;-56
2023/06/07 01:58:27;;;;;;;;;17.00;13.67;;;;;;;;6487576;39;8886;-56
2023/06/07 02:04:31;;;;;;;;;14.67;13.00;;;;;;;;6488185;39;8827;-55
2023/06/07 02:10:36;;;;;;;;;12.67;11.33;;;;;;;;6489196;39;8910;-55
2023/06/07 02:16:40;;;;;;;;;16.00;14.00;;;;;;;;6488084;31;8911;-56
2023/06/07 02:22:44;;;;;;;;;12.00;12.00;;;;;;;;6488277;46;8874;-54
2023/06/07 02:28:46;;;;;;;;;11.00;11.00;;;;;;;;6489319;39;8855;-54
2023/06/07 02:34:49;;;;;;;;;11.33;10.67;;;;;;;;6487707;46;8948;-55
2023/06/07 02:40:54;;;;;;;;;13.00;13.00;;;;;;;;6488504;39;8875;-54
2023/06/07 02:46:56;;;;;;;;;13.00;12.33;;;;;;;;6488459;39;8905;-53
2023/06/07 02:53:02;;;;;;;;;14.33;14.33;;;;;;;;6488477;46;8993;-56
2023/06/07 02:59:05;;;;;;;;;15.33;11.67;;;;;;;;6487442;46;8918;-53
2023/06/07 03:05:12;;;;;;;;;15.67;14.33;;;;;;;;6488577;31;8883;-53
2023/06/07 03:11:17;;;;;;;;;14.33;14.00;;;;;;;;6488822;39;8855;-55
2023/06/07 03:17:23;;;;;;;;;14.67;14.67;;;;;;;;6487788;39;9037;-54
2023/06/07 03:23:30;;;;;;;;;18.00;14.00;;;;;;;;6488102;39;9569;-55
2023/06/07 03:29:34;;;;;;;;;19.33;16.00;;;;;;;;6487514;39;9305;-54
2023/06/07 03:35:39;;;;;;;;;15.00;15.00;;;;;;;;6487248;39;8842;-53
2023/06/07 03:41:45;;;;;;;;;16.67;16.67;;;;;;;;6488236;39;8904;-54
2023/06/07 03:47:53;;;;;;;;;16.67;15.33;;;;;;;;6487312;39;8834;-55
2023/06/07 03:53:56;;;;;;;;;19.00;16.33;;;;;;;;6487754;39;8926;-55
2023/06/07 04:00:00;;;;;;;;;15.67;15.67;;;;;;;;6487319;46;8890;-56
2023/06/07 04:06:08;;;;;;;;;18.00;18.00;;;;;;;;6473558;39;9046;-57
2023/06/07 04:12:14;;;;;;;;;18.33;16.00;;;;;;;;6490144;39;9617;-59
2023/06/07 04:18:21;;;;;;;;;16.00;16.00;;;;;;;;6489249;39;8831;-59
2023/06/07 04:24:26;;;;;;;;;15.00;15.00;;;;;;;;6489986;46;8845;-58
2023/06/07 04:30:36;;;;;;;;;17.33;17.33;;;;;;;;6490274;31;8838;-57
2023/06/07 04:36:43;;;;;;;;;15.67;14.33;;;;;;;;6489499;39;8894;-56
2023/06/07 04:42:55;;;;;;;;;14.67;14.67;;;;;;;;6489834;46;8834;-58
2023/06/07 04:49:00;;;;;;;;;16.00;14.33;;;;;;;;6489966;39;8883;-57
2023/06/07 04:55:04;;;;;;;;;19.67;17.67;;;;;;;;6491669;31;8858;-59
2023/06/07 05:01:11;;;;;;;;;16.00;15.33;;;;;;;;6489055;47;8958;-58
2023/06/07 05:07:14;;;;;;;;;16.33;16.33;;;;;;;;6488593;47;8967;-57
2023/06/07 05:13:22;;;;;;;;;26.67;26.00;;;;;;;;6488607;39;8947;-57
2023/06/07 05:19:25;;;;;;;;;17.00;15.67;;;;;;;;6487906;31;8875;-58
2023/06/07 05:25:28;;;;;;;;;13.33;13.33;;;;;;;;6307913;39;10000539;-59
2023/06/07 05:31:31;;;;;;;;;16.33;16.33;;;;;;;;6488180;39;12705;-60
2023/06/07 05:37:37;;;;;;;;;14.67;14.00;;;;;;;;6491315;39;8869;-58
2023/06/07 05:43:42;;;;;;;;;12.00;12.00;;;;;;;;6489744;39;8869;-58
2023/06/07 05:49:53;;;;;;;;;14.00;13.33;;;;;;;;6489643;46;8892;-59
2023/06/07 05:55:58;;;;;;;;;14.33;13.33;;;;;;;;6490912;31;8845;-57
2023/06/07 06:02:01;;;;;;;;;12.00;12.00;;;;;;;;6489569;39;9034;-58
2023/06/07 06:08:04;;;;;;;;;14.67;14.00;;;;;;;;6490036;46;8836;-60
2023/06/07 06:14:07;;;;;;;;;11.33;11.33;;;;;;;;6489715;39;8923;-58
2023/06/07 06:20:12;;;;;;;;;10.50;10.50;;;;;;;;6489594;39;8912;-58
2023/06/07 06:26:15;;;;;;;;;8.50;8.50;;;;;;;;6489415;31;8849;-59
2023/06/07 06:32:18;;;;;;;;;8.00;8.00;;;;;;;;6489352;31;8873;-59
2023/06/07 06:38:23;;;;;;;;;12.75;12.75;;;;;;;;6490222;46;8890;-59
2023/06/07 06:44:27;;;;;;;;;11.25;9.25;;;;;;;;6488006;31;8865;-60
2023/06/07 06:50:30;;;;;;;;;11.75;10.25;;;;;;;;6489321;39;8923;-59
2023/06/07 06:56:38;;;;;;;;;6.25;6.25;;;;;;;;6489854;31;9037;-58
2023/06/07 07:02:41;;;;;;;;;11.00;9.25;;;;;;;;6488567;31;8936;-60
2023/06/07 07:08:45;;;;;;;;;9.50;7.50;;;;;;;;6486800;39;8956;-59
2023/06/07 07:14:50;;;;;;;;;8.00;8.00;;;;;;;;6486226;46;8958;-60
2023/06/07 07:20:52;;;;;;;;;13.00;10.50;;;;;;;;6488231;46;8829;-59
2023/06/07 07:26:55;;;;;;;;;8.75;8.25;;;;;;;;6488979;39;8872;-61
2023/06/07 07:33:00;;;;;;;;;9.00;7.25;;;;;;;;6487753;39;8961;-58
2023/06/07 07:39:06;;;;;;;;;9.25;8.50;;;;;;;;6487803;46;8880;-58
2023/06/07 07:45:10;;;;;;;;;14.25;12.00;;;;;;;;6486914;39;9568;-60
2023/06/07 07:51:13;;;;;;;;;13.75;12.75;;;;;;;;6488047;39;8897;-59
2023/06/07 07:57:15;;;;;;;;;10.25;9.75;;;;;;;;6486760;39;8927;-58
2023/06/07 08:03:21;;;;;;;;;23.50;23.50;;;;;;;;6485666;39;8932;-59
2023/06/07 08:09:25;;;;;;;;;7.25;7.25;;;;;;;;6484877;46;8907;-59
2023/06/07 08:15:31;;;;;;;;;12.75;12.75;;;;;;;;6483679;39;8936;-61
2023/06/07 08:21:35;;;;;;;;;7.00;6.75;;;;;;;;6484771;31;8901;-59
2023/06/07 08:27:39;;;;;;;;;7.75;6.50;;;;;;;;6485846;31;9623;-60
2023/06/07 08:33:41;;;;;;;;;9.00;8.50;;;;;;;;6484457;39;9933;-60
2023/06/07 08:39:44;;;;;;;;;14.75;13.25;;;;;;;;6487614;31;8873;-58
2023/06/07 08:45:50;;;;;;;;;25.75;23.00;;;;;;;;6485855;46;8929;-60
2023/06/07 08:51:55;;;;;;;;;12.00;10.00;;;;;;;;6485652;39;8911;-60
2023/06/07 08:58:17;;;;;;;;;12.00;11.75;;;;;;;;6486561;39;8865;-59
2023/06/07 09:04:21;;;;;;;;;11.00;10.50;;;;;;;;6482747;47;8979;-60
2023/06/07 09:10:26;;;;;;;;;12.50;11.00;;;;;;;;6482848;39;8893;-60
2023/06/07 09:16:29;;;;;;;;;5.75;5.75;;;;;;;;6484436;46;8916;-60
2023/06/07 09:22:32;;;;;;;;;11.75;10.75;;;;;;;;6483377;39;8865;-59
2023/06/07 09:28:38;;;;;;;;;10.00;9.75;;;;;;;;6481155;31;8877;-58
2023/06/07 09:34:42;;;;;;;;;9.25;8.50;;;;;;;;6480177;31;8865;-58
2023/06/07 09:40:53;;;;;;;;;7.75;7.00;;;;;;;;6483971;31;8980;-60
2023/06/07 09:46:59;;;;;;;;;8.00;8.00;;;;;;;;6483411;46;8893;-61
2023/06/07 09:53:05;;;;;;;;;16.25;15.25;;;;;;;;6485101;39;9768;-59
2023/06/07 09:59:10;;;;;;;;;7.75;7.75;;;;;;;;6484626;46;8944;-59
2023/06/07 10:05:21;;;;;;;;;7.75;7.75;;;;;;;;6483129;39;8987;-61
2023/06/07 10:11:26;;;;;;;;;14.25;13.50;;;;;;;;6483883;46;8897;-59
2023/06/07 10:17:50;;;;;;;;;43.50;37.25;;;;;;;;6483617;31;8959;-59
2023/06/07 10:23:57;;;;;;;;;12.00;11.00;;;;;;;;6483343;39;8897;-65
2023/06/07 10:30:11;;;;;;;;;9.25;9.00;;;;;;;;6484596;46;8904;-60
2023/06/07 10:36:19;;;;;;;;;10.75;10.75;;;;;;;;6484589;39;8885;-58
2023/06/07 10:42:23;;;;;;;;;7.25;7.25;;;;;;;;6484511;31;8995;-60
2023/06/07 10:48:37;;;;;;;;;5.50;5.50;;;;;;;;6484768;39;9556;-59
2023/06/07 10:54:42;;;;;;;;;7.75;7.75;;;;;;;;6484747;39;8912;-61
2023/06/07 11:00:52;;;;;;;;;8.00;8.00;;;;;;;;6482554;46;8936;-61
2023/06/07 11:07:18;;;;;;;;;12.00;10.25;;;;;;;;6504053;36;8909;-60
2023/06/07 11:13:53;;;;;;;;;8.50;8.50;;;;;;;;6482860;31;10139;-59
2023/06/07 11:19:59;;;;;;;;;7.75;7.75;;;;;;;;6484131;31;9015;-61
2023/06/07 11:26:10;;;;;;;;;9.25;9.25;;;;;;;;6484387;31;8893;-60
2023/06/07 11:32:15;;;;;;;;;13.00;11.75;;;;;;;;6480805;31;9014;-58
2023/06/07 11:38:20;;;;;;;;;9.00;7.75;;;;;;;;6483981;31;8861;-59
2023/06/07 11:44:24;;;;;;;;;9.00;9.00;;;;;;;;6483285;39;8852;-60
2023/06/07 11:50:28;;;;;;;;;11.50;11.50;;;;;;;;6484604;39;9632;-60
2023/06/07 11:56:38;;;;;;;;;6.50;6.50;;;;;;;;6484265;39;8927;-59
2023/06/07 12:02:45;;;;;;;;;6.75;6.75;;;;;;;;6484309;31;8932;-60
2023/06/07 12:08:51;;;;;;;;;10.75;8.50;;;;;;;;6483085;39;9625;-59
2023/06/07 12:15:03;;;;;;;;;8.50;8.50;;;;;;;;6482961;39;8872;-60
2023/06/07 12:21:18;;;;;;;;;14.75;12.25;;;;;;;;6483645;39;9721;-59
2023/06/07 12:27:22;;;;;;;;;9.50;9.50;;;;;;;;6482980;31;8902;-60
2023/06/07 12:33:28;;;;;;;;;9.00;9.00;;;;;;;;6482561;39;8906;-60
2023/06/07 12:39:32;;;;;;;;;6.75;6.50;;;;;;;;6482532;31;8901;-59
2023/06/07 12:45:34;;;;;;;;;9.00;7.75;;;;;;;;6482995;31;8895;-61
2023/06/07 12:51:37;;;;;;;;;11.00;10.00;;;;;;;;6483682;39;8857;-60
